createdAt,value
2018-06-22T00:01:29.934Z,13.30
2018-06-22T00:03:58.109Z,13.30
2018-06-22T00:08:54.670Z,13.30
2018-06-22T00:11:22.968Z,13.30
2018-06-22T00:13:51.171Z,13.20
2018-06-22T00:16:19.371Z,13.20
2018-06-22T00:18:47.898Z,13.20
2018-06-22T00:21:16.111Z,13.10
2018-06-22T00:23:44.871Z,13.10
2018-06-22T00:26:13.079Z,13.20
2018-06-22T00:28:41.282Z,13.10
2018-06-22T00:31:09.496Z,13.10
2018-06-22T00:33:37.716Z,13.10
2018-06-22T00:36:05.900Z,13.10
2018-06-22T00:38:34.114Z,13.00
2018-06-22T00:41:02.337Z,13.00
2018-06-22T00:43:30.704Z,13.10
2018-06-22T00:45:58.903Z,13.00
2018-06-22T00:48:27.137Z,13.00
2018-06-22T00:50:55.316Z,13.00
2018-06-22T00:53:34.971Z,13.10
2018-06-22T00:56:03.134Z,13.00
2018-06-22T00:58:31.360Z,13.10
2018-06-22T01:03:27.490Z,13.00
2018-06-22T01:05:55.681Z,12.90
2018-06-22T01:08:23.900Z,12.90
2018-06-22T01:10:52.126Z,12.80
2018-06-22T01:13:20.313Z,12.80
2018-06-22T01:15:48.540Z,12.70
2018-06-22T01:18:16.738Z,12.70
2018-06-22T01:20:44.944Z,12.70
2018-06-22T01:23:13.162Z,12.70
2018-06-22T01:25:41.353Z,12.70
2018-06-22T01:28:09.551Z,12.70
2018-06-22T01:30:37.737Z,12.70
2018-06-22T01:33:06.017Z,12.80
2018-06-22T01:35:34.243Z,12.80
2018-06-22T01:38:02.457Z,12.90
2018-06-22T01:40:30.925Z,12.80
2018-06-22T01:42:59.103Z,12.90
2018-06-22T01:45:27.307Z,12.90
2018-06-22T01:47:55.511Z,13.00
2018-06-22T01:50:23.697Z,13.00
2018-06-22T01:52:51.895Z,12.90
2018-06-22T01:55:20.112Z,12.90
2018-06-22T01:57:48.273Z,12.90
2018-06-22T02:00:16.478Z,13.00
2018-06-22T02:02:44.700Z,13.00
2018-06-22T02:05:12.882Z,13.00
2018-06-22T02:07:41.081Z,13.00
2018-06-22T02:10:09.282Z,12.90
2018-06-22T02:12:37.511Z,12.90
2018-06-22T02:15:05.729Z,12.90
2018-06-22T02:17:33.925Z,12.90
2018-06-22T02:20:02.138Z,12.90
2018-06-22T02:22:30.317Z,12.90
2018-06-22T02:24:58.506Z,12.90
2018-06-22T02:27:26.692Z,12.90
2018-06-22T02:29:54.910Z,12.80
2018-06-22T02:32:23.142Z,12.90
2018-06-22T02:34:51.338Z,12.90
2018-06-22T02:37:19.493Z,12.90
2018-06-22T02:39:47.692Z,12.90
2018-06-22T02:42:15.861Z,12.90
2018-06-22T02:44:44.049Z,12.90
2018-06-22T02:47:12.235Z,12.90
2018-06-22T02:49:40.434Z,12.80
2018-06-22T02:52:08.633Z,12.80
2018-06-22T02:54:36.851Z,12.80
2018-06-22T02:57:05.041Z,12.80
2018-06-22T02:59:33.222Z,12.70
2018-06-22T03:02:01.415Z,12.70
2018-06-22T03:04:29.714Z,12.70
2018-06-22T03:06:57.919Z,12.70
2018-06-22T03:09:26.119Z,12.60
2018-06-22T03:11:54.318Z,12.60
2018-06-22T03:14:22.499Z,12.60
2018-06-22T03:16:50.693Z,12.60
2018-06-22T03:21:46.829Z,12.60
2018-06-22T03:24:15.038Z,12.60
2018-06-22T03:26:43.309Z,12.60
2018-06-22T03:29:11.500Z,12.60
2018-06-22T03:31:39.724Z,12.60
2018-06-22T03:34:07.919Z,12.50
2018-06-22T03:36:36.137Z,12.60
2018-06-22T03:39:06.157Z,12.50
2018-06-22T03:41:34.381Z,12.60
2018-06-22T03:44:02.577Z,12.60
2018-06-22T03:46:30.797Z,12.60
2018-06-22T03:48:59.022Z,12.60
2018-06-22T03:51:27.205Z,12.60
2018-06-22T03:53:55.437Z,12.60
2018-06-22T03:56:23.742Z,12.60
2018-06-22T03:58:51.932Z,12.60
2018-06-22T04:01:20.129Z,12.70
2018-06-22T04:03:48.350Z,12.70
2018-06-22T04:06:16.533Z,12.70
2018-06-22T04:08:44.738Z,12.70
2018-06-22T04:11:12.944Z,12.70
2018-06-22T04:13:41.132Z,12.80
2018-06-22T04:16:09.329Z,12.70
2018-06-22T04:18:37.499Z,12.70
2018-06-22T04:21:05.704Z,12.80
2018-06-22T04:26:01.840Z,12.80
2018-06-22T04:28:30.018Z,12.90
2018-06-22T04:30:58.205Z,12.90
2018-06-22T04:33:26.373Z,12.90
2018-06-22T04:35:54.550Z,12.90
2018-06-22T04:38:22.750Z,13.00
2018-06-22T04:40:50.918Z,13.00
2018-06-22T04:43:19.119Z,13.10
2018-06-22T04:45:47.334Z,13.10
2018-06-22T04:48:15.522Z,13.10
2018-06-22T04:50:43.678Z,13.10
2018-06-22T04:53:12.264Z,13.20
2018-06-22T04:55:40.433Z,13.20
2018-06-22T04:58:08.604Z,13.20
2018-06-22T05:00:36.851Z,13.30
2018-06-22T05:03:05.028Z,13.30
2018-06-22T05:05:33.231Z,13.30
2018-06-22T05:08:01.406Z,13.40
2018-06-22T05:10:29.597Z,13.40
2018-06-22T05:12:57.752Z,13.40
2018-06-22T05:15:25.914Z,13.40
2018-06-22T05:17:54.093Z,13.40
2018-06-22T05:20:22.265Z,13.40
2018-06-22T05:22:50.469Z,13.50
2018-06-22T05:25:18.642Z,13.40
2018-06-22T05:27:46.817Z,13.40
2018-06-22T05:30:15.051Z,13.40
2018-06-22T05:32:43.197Z,13.30
2018-06-22T05:35:11.377Z,13.30
2018-06-22T05:37:39.558Z,13.30
2018-06-22T05:40:07.805Z,13.30
2018-06-22T05:42:36.247Z,13.20
2018-06-22T05:45:04.428Z,13.30
2018-06-22T05:47:32.598Z,13.30
2018-06-22T05:50:00.848Z,13.30
2018-06-22T05:52:29.048Z,13.30
2018-06-22T05:54:57.278Z,13.30
2018-06-22T05:57:25.425Z,13.30
2018-06-22T05:59:53.601Z,13.40
2018-06-22T06:02:21.784Z,13.40
2018-06-22T06:04:50.441Z,13.40
2018-06-22T06:07:18.610Z,13.40
2018-06-22T06:09:46.814Z,13.40
2018-06-22T06:12:15.564Z,13.40
2018-06-22T06:14:43.757Z,13.40
2018-06-22T06:17:11.962Z,13.40
2018-06-22T06:19:40.241Z,13.40
2018-06-22T06:22:08.452Z,13.40
2018-06-22T06:24:36.777Z,13.40
2018-06-22T06:27:04.976Z,13.30
2018-06-22T06:29:33.145Z,13.30
2018-06-22T06:34:29.245Z,13.30
2018-06-22T06:36:57.419Z,13.20
2018-06-22T06:39:25.978Z,13.10
2018-06-22T06:41:54.174Z,13.00
2018-06-22T06:44:22.355Z,13.10
2018-06-22T06:46:50.532Z,13.00
2018-06-22T06:49:18.697Z,12.90
2018-06-22T06:51:46.888Z,12.90
2018-06-22T06:54:15.056Z,12.90
2018-06-22T06:56:43.271Z,12.90
2018-06-22T07:01:40.115Z,12.80
2018-06-22T07:04:08.296Z,13.00
2018-06-22T07:06:36.475Z,13.10
2018-06-22T07:09:06.743Z,13.20
2018-06-22T07:11:34.933Z,13.20
2018-06-22T07:14:03.612Z,13.40
2018-06-22T07:16:31.808Z,13.40
2018-06-22T07:21:27.953Z,13.40
2018-06-22T07:23:56.120Z,13.50
2018-06-22T07:26:24.302Z,13.50
2018-06-22T07:28:52.449Z,13.60
2018-06-22T07:31:20.728Z,13.40
2018-06-22T07:33:48.888Z,13.40
2018-06-22T07:36:17.074Z,13.50
2018-06-22T07:38:45.251Z,13.60
2018-06-22T07:41:13.413Z,13.70
2018-06-22T07:43:41.617Z,13.70
2018-06-22T07:46:09.816Z,13.80
2018-06-22T07:48:37.992Z,13.80
2018-06-22T07:51:06.996Z,13.90
2018-06-22T07:53:35.499Z,14.10
2018-06-22T07:56:03.659Z,14.20
2018-06-22T07:58:31.911Z,14.50
2018-06-22T08:01:00.136Z,14.70
2018-06-22T08:03:28.300Z,14.70
2018-06-22T08:05:56.552Z,14.60
2018-06-22T08:08:24.788Z,14.60
2018-06-22T08:10:52.985Z,14.70
2018-06-22T08:15:49.115Z,14.70
2018-06-22T08:18:17.309Z,14.50
2018-06-22T08:20:45.494Z,14.50
2018-06-22T08:23:13.706Z,14.50
2018-06-22T08:25:42.419Z,14.40
2018-06-22T08:28:10.600Z,14.40
2018-06-22T08:30:38.776Z,14.40
2018-06-22T08:33:06.982Z,14.40
2018-06-22T08:35:35.461Z,14.50
2018-06-22T08:38:03.660Z,15.40
2018-06-22T08:40:31.857Z,17.10
2018-06-22T08:43:00.198Z,17.40
2018-06-22T08:45:28.593Z,17.90
2018-06-22T08:47:56.764Z,19.80
2018-06-22T08:50:25.022Z,20.20
2018-06-22T08:52:53.229Z,20.90
2018-06-22T08:55:21.397Z,22.50
2018-06-22T08:57:49.582Z,22.10
2018-06-22T09:00:17.792Z,21.40
2018-06-22T09:02:45.956Z,20.30
2018-06-22T09:05:14.157Z,19.30
2018-06-22T09:07:42.345Z,18.70
2018-06-22T09:10:10.533Z,18.10
2018-06-22T09:12:38.798Z,17.40
2018-06-22T09:15:06.924Z,16.90
2018-06-22T09:17:35.090Z,16.60
2018-06-22T09:20:03.655Z,16.30
2018-06-22T09:22:31.825Z,16.40
2018-06-22T09:25:00.011Z,16.50
2018-06-22T09:27:28.177Z,16.70
2018-06-22T09:29:56.452Z,16.80
2018-06-22T09:32:24.597Z,16.80
2018-06-22T09:34:52.776Z,16.80
2018-06-22T09:37:20.939Z,16.80
2018-06-22T09:39:49.116Z,16.70
2018-06-22T09:42:17.327Z,16.60
2018-06-22T09:44:45.524Z,16.60
2018-06-22T09:47:13.692Z,16.50
2018-06-22T09:49:41.918Z,16.40
2018-06-22T09:52:10.185Z,16.30
2018-06-22T09:54:38.358Z,16.40
2018-06-22T09:57:06.547Z,16.50
2018-06-22T09:59:34.726Z,17.10
2018-06-22T10:02:02.973Z,17.60
2018-06-22T10:04:31.457Z,17.80
2018-06-22T10:06:59.614Z,17.70
2018-06-22T10:09:27.770Z,17.10
2018-06-22T10:11:55.940Z,16.70
2018-06-22T10:14:24.120Z,16.40
2018-06-22T10:16:52.328Z,16.20
2018-06-22T10:19:20.542Z,16.70
2018-06-22T10:21:48.781Z,18.00
2018-06-22T10:24:16.948Z,19.80
2018-06-22T10:26:45.098Z,21.50
2018-06-22T10:29:13.304Z,23.30
2018-06-22T10:31:41.559Z,24.70
2018-06-22T10:34:09.717Z,25.60
2018-06-22T10:36:38.249Z,26.30
2018-06-22T10:39:09.664Z,26.70
2018-06-22T10:41:37.841Z,27.20
2018-06-22T10:44:06.114Z,26.50
2018-06-22T10:46:34.328Z,25.50
2018-06-22T10:49:02.527Z,24.90
2018-06-22T10:51:30.742Z,24.60
2018-06-22T10:53:58.895Z,24.90
2018-06-22T10:56:27.089Z,24.80
2018-06-22T10:58:55.312Z,24.50
2018-06-22T11:01:23.488Z,24.10
2018-06-22T11:03:51.907Z,23.40
2018-06-22T11:06:20.733Z,22.60
2018-06-22T11:08:49.136Z,21.80
2018-06-22T11:11:17.992Z,21.20
2018-06-22T11:13:46.551Z,20.80
2018-06-22T11:16:17.662Z,20.30
2018-06-22T11:18:45.919Z,19.90
2018-06-22T11:21:14.172Z,19.70
2018-06-22T11:23:42.660Z,19.50
2018-06-22T11:26:10.814Z,19.40
2018-06-22T11:28:39.009Z,18.70
2018-06-22T11:31:07.202Z,17.80
2018-06-22T11:33:35.396Z,17.20
2018-06-22T11:36:03.586Z,16.70
2018-06-22T11:38:31.782Z,16.50
2018-06-22T11:41:00.029Z,16.50
2018-06-22T11:43:28.384Z,16.70
2018-06-22T11:45:56.600Z,17.20
2018-06-22T11:48:24.753Z,17.60
2018-06-22T11:50:52.987Z,17.90
2018-06-22T11:53:21.190Z,18.40
2018-06-22T11:55:49.377Z,18.90
2018-06-22T11:58:17.544Z,19.20
2018-06-22T12:00:46.098Z,19.20
2018-06-22T12:03:14.304Z,19.30
2018-06-22T12:05:42.516Z,19.60
2018-06-22T12:08:10.707Z,19.80
2018-06-22T12:10:43.497Z,19.90
2018-06-22T12:13:11.708Z,20.30
2018-06-22T12:15:39.920Z,20.50
2018-06-22T12:18:08.115Z,20.70
2018-06-22T12:20:36.307Z,20.90
2018-06-22T12:23:04.519Z,20.70
2018-06-22T12:25:32.745Z,20.70
2018-06-22T12:28:01.394Z,20.90
2018-06-22T12:30:29.589Z,21.00
2018-06-22T12:32:57.738Z,21.20
2018-06-22T12:35:25.915Z,21.40
2018-06-22T12:37:54.054Z,21.50
2018-06-22T12:40:22.305Z,21.60
2018-06-22T12:42:50.587Z,21.50
2018-06-22T12:45:18.791Z,21.30
2018-06-22T12:47:47.007Z,21.10
2018-06-22T12:50:15.229Z,20.90
2018-06-22T12:52:43.406Z,20.60
2018-06-22T12:55:11.570Z,20.00
2018-06-22T12:57:39.830Z,19.40
2018-06-22T13:02:42.662Z,17.70
2018-06-22T13:05:10.864Z,17.10
2018-06-22T13:07:39.133Z,16.80
2018-06-22T13:10:07.357Z,16.80
2018-06-22T13:12:35.772Z,16.80
2018-06-22T13:15:04.644Z,16.80
2018-06-22T13:17:32.802Z,16.90
2018-06-22T13:20:01.053Z,17.00
2018-06-22T13:22:29.244Z,17.20
2018-06-22T13:24:57.424Z,17.40
2018-06-22T13:27:25.641Z,17.60
2018-06-22T13:29:53.819Z,17.70
2018-06-22T13:32:22.030Z,17.80
2018-06-22T13:34:50.728Z,17.80
2018-06-22T13:37:18.899Z,17.90
2018-06-22T13:39:47.190Z,18.00
2018-06-22T13:42:15.400Z,18.10
2018-06-22T13:44:43.560Z,18.10
2018-06-22T13:47:12.111Z,18.20
2018-06-22T13:52:08.354Z,18.30
2018-06-22T13:54:36.610Z,18.50
2018-06-22T13:57:04.901Z,18.60
2018-06-22T13:59:33.052Z,18.60
2018-06-22T14:02:01.293Z,18.60
2018-06-22T14:06:42.446Z,18.70
2018-06-22T14:09:13.462Z,18.90
2018-06-22T14:11:41.908Z,19.00
2018-06-22T14:14:10.152Z,18.90
2018-06-22T14:16:38.422Z,18.90
2018-06-22T14:19:07.165Z,19.00
2018-06-22T14:21:35.656Z,19.00
2018-06-22T14:24:04.110Z,19.10
2018-06-22T14:26:32.310Z,19.20
2018-06-22T14:29:00.479Z,19.40
2018-06-22T14:31:28.836Z,19.70
2018-06-22T14:33:57.138Z,19.80
2018-06-22T14:36:25.380Z,19.80
2018-06-22T14:38:54.023Z,19.90
2018-06-22T14:41:22.232Z,20.10
2018-06-22T14:43:50.461Z,20.40
2018-06-22T14:46:18.652Z,20.60
2018-06-22T14:48:46.859Z,20.60
2018-06-22T14:51:15.133Z,20.50
2018-06-22T14:53:48.729Z,20.20
2018-06-22T14:56:22.380Z,19.80
2018-06-22T14:58:56.039Z,19.40
2018-06-22T15:01:29.604Z,19.20
2018-06-22T15:04:03.260Z,19.20
2018-06-22T15:06:36.733Z,19.20
2018-06-22T15:09:07.925Z,19.10
2018-06-22T15:11:36.133Z,19.30
2018-06-22T15:14:04.538Z,19.50
2018-06-22T15:16:32.730Z,19.50
2018-06-22T15:19:00.911Z,19.70
2018-06-22T15:21:29.081Z,19.80
2018-06-22T15:23:57.279Z,19.80
2018-06-22T15:26:25.498Z,19.70
2018-06-22T15:28:53.726Z,19.50
2018-06-22T15:31:21.891Z,19.20
2018-06-22T15:33:55.397Z,18.80
2018-06-22T15:36:28.917Z,18.50
2018-06-22T15:39:02.485Z,18.40
2018-06-22T15:41:36.030Z,18.30
2018-06-22T15:48:44.872Z,18.90
2018-06-22T15:51:18.400Z,19.00
2018-06-22T15:53:52.052Z,19.00
2018-06-22T15:56:20.239Z,19.10
2018-06-22T15:58:48.589Z,19.00
2018-06-22T16:01:16.931Z,18.90
2018-06-22T16:03:50.538Z,18.90
2018-06-22T16:06:18.929Z,18.80
2018-06-22T16:08:47.271Z,18.70
2018-06-22T16:11:15.475Z,18.80
2018-06-22T16:13:47.878Z,18.80
2018-06-22T16:16:21.478Z,18.80
2018-06-22T16:18:54.946Z,19.00
2018-06-22T16:21:28.512Z,19.10
2018-06-22T16:24:02.020Z,19.10
2018-06-22T16:26:35.681Z,19.10
2018-06-22T16:29:03.884Z,19.20
2018-06-22T16:31:32.170Z,19.20
2018-06-22T16:34:00.372Z,19.10
2018-06-22T16:36:28.556Z,19.00
2018-06-22T16:38:57.012Z,19.00
2018-06-22T16:41:25.338Z,19.00
2018-06-22T16:43:54.060Z,18.90
2018-06-22T16:46:22.385Z,18.90
2018-06-22T16:48:50.604Z,18.80
2018-06-22T16:51:18.897Z,18.70
2018-06-22T16:56:15.033Z,18.30
2018-06-22T16:58:43.233Z,18.20
2018-06-22T17:03:39.807Z,18.00
2018-06-22T17:06:08.701Z,18.00
2018-06-22T17:08:42.070Z,18.00
2018-06-22T17:11:15.593Z,18.00
2018-06-22T17:13:49.243Z,18.00
2018-06-22T17:16:22.614Z,17.90
2018-06-22T17:18:53.142Z,18.00
2018-06-22T17:21:22.093Z,17.90
2018-06-22T17:23:50.287Z,17.80
2018-06-22T17:28:46.541Z,17.80
2018-06-22T17:31:14.703Z,17.70
2018-06-22T17:33:42.893Z,17.60
2018-06-22T17:36:11.122Z,17.60
2018-06-22T17:38:39.342Z,17.60
2018-06-22T17:41:07.534Z,17.50
2018-06-22T17:43:35.698Z,17.30
2018-06-22T17:46:03.931Z,17.20
2018-06-22T17:48:32.123Z,17.20
2018-06-22T17:51:00.373Z,17.10
2018-06-22T17:55:56.524Z,17.00
2018-06-22T17:58:24.832Z,16.90
2018-06-22T18:00:58.454Z,17.00
2018-06-22T18:03:31.954Z,17.00
2018-06-22T18:06:05.610Z,17.10
2018-06-22T18:08:48.260Z,17.20
2018-06-22T18:11:21.821Z,17.20
2018-06-22T18:13:50.051Z,17.20
2018-06-22T18:19:01.232Z,17.10
2018-06-22T18:21:29.422Z,17.00
2018-06-22T18:23:58.453Z,16.90
2018-06-22T18:26:26.613Z,16.70
2018-06-22T18:28:54.839Z,16.60
2018-06-22T18:31:23.035Z,16.70
2018-06-22T18:33:51.335Z,16.70
2018-06-22T18:36:19.473Z,16.60
2018-06-22T18:38:47.678Z,16.60
2018-06-22T18:41:15.926Z,16.60
2018-06-22T18:43:49.621Z,16.60
2018-06-22T18:46:17.821Z,16.60
2018-06-22T18:48:46.003Z,16.50
2018-06-22T18:51:14.227Z,16.50
2018-06-22T18:53:47.708Z,16.40
2018-06-22T18:56:21.277Z,16.40
2018-06-22T18:58:54.864Z,16.30
2018-06-22T19:01:28.282Z,16.20
2018-06-22T19:03:56.500Z,16.10
2018-06-22T19:06:24.698Z,16.10
2018-06-22T19:08:52.881Z,15.90
2018-06-22T19:11:21.052Z,15.90
2018-06-22T19:13:49.242Z,15.80
2018-06-22T19:16:17.420Z,15.70
2018-06-22T19:18:45.578Z,15.60
2018-06-22T19:21:13.747Z,15.60
2018-06-22T19:23:41.916Z,15.60
2018-06-22T19:26:10.120Z,15.50
2018-06-22T19:28:38.386Z,15.50
2018-06-22T19:31:06.717Z,15.50
2018-06-22T19:33:34.928Z,15.50
2018-06-22T19:36:03.191Z,15.50
2018-06-22T19:38:31.397Z,15.40
2018-06-22T19:40:59.589Z,15.40
2018-06-22T19:43:32.946Z,15.30
2018-06-22T19:46:06.525Z,15.20
2018-06-22T19:48:40.202Z,15.10
2018-06-22T19:51:14.661Z,15.10
2018-06-22T19:53:45.708Z,15.00
2018-06-22T19:56:13.921Z,14.90
2018-06-22T19:58:42.117Z,14.90
2018-06-22T20:01:11.739Z,14.80
2018-06-22T20:03:40.019Z,14.70
2018-06-22T20:06:08.270Z,14.70
2018-06-22T20:08:36.497Z,14.70
2018-06-22T20:11:04.720Z,14.70
2018-06-22T20:13:32.882Z,14.60
2018-06-22T20:16:01.096Z,14.50
2018-06-22T20:18:29.314Z,14.50
2018-06-22T20:20:57.505Z,14.40
2018-06-22T20:23:25.701Z,14.30
2018-06-22T20:25:53.890Z,14.30
2018-06-22T20:28:22.134Z,14.20
2018-06-22T20:30:50.321Z,14.20
2018-06-22T20:33:20.987Z,14.20
2018-06-22T20:36:57.935Z,14.10
2018-06-22T20:39:31.811Z,14.10
2018-06-22T20:42:05.495Z,14.00
2018-06-22T20:44:39.008Z,14.00
2018-06-22T20:47:12.500Z,14.10
2018-06-22T20:49:46.062Z,14.00
2018-06-22T20:52:14.261Z,14.10
2018-06-22T20:54:42.485Z,14.00
2018-06-22T20:57:10.688Z,13.90
2018-06-22T20:59:38.877Z,13.80
2018-06-22T21:02:07.096Z,13.80
2018-06-22T21:04:35.311Z,13.80
2018-06-22T21:07:03.521Z,13.80
2018-06-22T21:09:31.756Z,13.70
2018-06-22T21:11:59.973Z,13.60
2018-06-22T21:14:28.182Z,13.70
2018-06-22T21:16:56.428Z,13.60
2018-06-22T21:19:24.581Z,13.60
2018-06-22T21:24:26.423Z,13.50
2018-06-22T21:26:54.607Z,13.50
2018-06-22T21:29:28.264Z,13.50
2018-06-22T21:32:01.617Z,13.40
2018-06-22T21:34:34.365Z,13.50
2018-06-22T21:37:07.934Z,13.40
2018-06-22T21:39:36.097Z,13.40
2018-06-22T21:42:04.272Z,13.40
2018-06-22T21:44:32.505Z,13.40
2018-06-22T21:47:00.724Z,13.30
2018-06-22T21:49:28.889Z,13.30
2018-06-22T21:51:57.057Z,13.20
2018-06-22T21:54:25.249Z,13.10
2018-06-22T21:56:53.442Z,13.20
2018-06-22T21:59:21.628Z,13.20
2018-06-22T22:01:49.819Z,13.20
2018-06-22T22:04:18.005Z,13.20
2018-06-22T22:06:46.180Z,13.10
2018-06-22T22:11:47.704Z,13.00
2018-06-22T22:14:15.894Z,13.00
2018-06-22T22:16:44.105Z,13.00
2018-06-22T22:19:12.320Z,13.00
2018-06-22T22:21:40.521Z,12.90
2018-06-22T22:24:08.741Z,12.90
2018-06-22T22:26:36.958Z,12.90
2018-06-22T22:29:05.243Z,12.90
2018-06-22T22:31:33.432Z,12.90
2018-06-22T22:34:01.680Z,12.90
2018-06-22T22:36:29.918Z,13.00
2018-06-22T22:38:58.094Z,13.00
2018-06-22T22:41:28.425Z,13.10
2018-06-22T22:43:56.642Z,13.10
2018-06-22T22:46:24.792Z,13.10
2018-06-22T22:48:52.961Z,13.20
2018-06-22T22:51:21.157Z,13.20
2018-06-22T22:53:49.344Z,13.10
2018-06-22T22:56:17.547Z,13.10
2018-06-22T22:58:45.861Z,13.10
2018-06-22T23:01:14.037Z,13.00
2018-06-22T23:03:42.189Z,13.00
2018-06-22T23:06:10.408Z,13.10
2018-06-22T23:08:38.592Z,13.10
2018-06-22T23:11:06.786Z,13.10
2018-06-22T23:13:34.980Z,13.10
2018-06-22T23:18:31.138Z,13.20
2018-06-22T23:20:59.336Z,13.20
2018-06-22T23:23:37.437Z,13.30
2018-06-22T23:26:05.957Z,13.30
2018-06-22T23:28:34.179Z,13.30
2018-06-22T23:33:32.061Z,13.30
2018-06-22T23:36:01.269Z,13.30
2018-06-22T23:38:29.877Z,13.30
2018-06-22T23:40:58.093Z,13.40
2018-06-22T23:43:26.683Z,13.40
2018-06-22T23:45:54.871Z,13.40
2018-06-22T23:48:23.165Z,13.40
2018-06-22T23:50:51.346Z,13.40
2018-06-22T23:53:19.510Z,13.40
2018-06-22T23:55:47.704Z,13.50
2018-06-22T23:58:15.864Z,13.50
